Time;durP1;ratioP1;P1;durP2;ratioP2;P2;SDS_P1;SDS_P2;PMS_P1;PMS_P2;Temp;Humidity;BMP_temperature;BMP_pressure;BME280_temperature;BME280_humidity;BME280_pressure;Samples;Min_cycle;Max_cycle;Signal;HPM_P1;HPM_P2
2022/01/21 00:00:31;;;;;;;3.65;1.00;;;-1.10;99.90;;;;;;5031926;28;20016;-60
2022/01/21 00:02:57;;;;;;;15.35;2.75;;;-1.10;99.90;;;;;;5027363;28;20117;-62
2022/01/21 00:05:23;;;;;;;8.57;1.80;;;-1.10;99.90;;;;;;5025235;28;20130;-61
2022/01/21 00:07:48;;;;;;;;;;;-1.10;99.90;;;;;;5030209;28;20056;-62
2022/01/21 00:10:14;;;;;;;8.13;1.25;;;-1.10;99.90;;;;;;5027767;28;20326;-61
2022/01/21 00:12:40;;;;;;;7.10;1.40;;;-1.10;99.90;;;;;;5031640;28;20029;-63
2022/01/21 00:15:08;;;;;;;7.75;2.10;;;-1.10;99.90;;;;;;5027706;28;20723;-62
2022/01/21 00:17:33;;;;;;;10.55;1.60;;;-1.10;99.90;;;;;;5033358;28;20028;-60
2022/01/21 00:30:55;;;;;;;10.68;1.30;;;-1.20;99.90;;;;;;5026183;28;20044;-63
2022/01/21 00:33:21;;;;;;;;;;;-1.20;99.90;;;;;;5029533;28;20029;-61
2022/01/21 00:35:46;;;;;;;6.32;1.25;;;-1.20;99.90;;;;;;5036350;28;20016;-61
2022/01/21 00:38:13;;;;;;;;;;;-1.20;99.90;;;;;;5026742;28;20029;-63
2022/01/21 00:40:39;;;;;;;9.98;2.38;;;-1.20;99.90;;;;;;5033120;28;19917;-62
2022/01/21 00:43:20;;;;;;;9.75;1.92;;;-1.20;99.90;;;;;;5033438;28;20670;-62
2022/01/21 00:45:46;;;;;;;11.63;1.95;;;-1.20;99.90;;;;;;5032806;28;20116;-63
2022/01/21 00:48:11;;;;;;;;;;;-1.20;99.90;;;;;;5025256;28;20579;-61
2022/01/21 00:50:37;;;;;;;13.35;1.80;;;-1.30;99.90;;;;;;5036580;28;19952;-60
2022/01/21 00:53:03;;;;;;;7.70;1.63;;;-1.20;99.90;;;;;;5028396;28;20033;-63
2022/01/21 00:55:29;;;;;;;;;;;-1.20;99.90;;;;;;5030246;28;20908;-61
2022/01/21 00:57:54;;;;;;;4.82;1.08;;;-1.30;99.90;;;;;;5025790;28;19908;-61
2022/01/21 01:00:20;;;;;;;8.93;1.95;;;-1.30;99.90;;;;;;5027811;28;20112;-62
2022/01/21 01:02:46;;;;;;;11.55;2.08;;;-1.30;99.90;;;;;;5028448;28;20029;-63
2022/01/21 01:05:13;;;;;;;11.35;2.05;;;-1.30;99.90;;;;;;5026111;28;20057;-62
2022/01/21 01:07:38;;;;;;;8.32;2.22;;;-1.30;99.90;;;;;;5027679;28;20838;-61
2022/01/21 01:10:09;;;;;;;6.30;1.48;;;-1.30;99.90;;;;;;5029191;28;20040;-62
2022/01/21 01:20:36;;;;;;;7.78;1.85;;;-1.30;99.90;;;;;;5024779;28;20049;-62
2022/01/21 01:23:21;;;;;;;6.60;2.00;;;-1.30;99.90;;;;;;5031897;28;20025;-63
2022/01/21 01:28:32;;;;;;;9.00;2.67;;;-1.30;99.90;;;;;;5030560;28;20036;-63
2022/01/21 01:30:58;;;;;;;11.10;2.47;;;-1.30;99.90;;;;;;5023260;28;20417;-62
2022/01/21 01:33:25;;;;;;;11.88;2.00;;;-1.40;99.90;;;;;;5033448;28;20033;-62
2022/01/21 01:35:51;;;;;;;6.63;1.98;;;-1.30;99.90;;;;;;5034503;28;20132;-62
2022/01/21 01:38:41;;;;;;;10.23;2.10;;;-1.40;99.90;;;;;;5032042;28;20236;-62
2022/01/21 01:41:11;;;;;;;12.05;2.30;;;-1.40;99.90;;;;;;5027698;28;20033;-62
2022/01/21 01:49:28;;;;;;;5.20;1.85;;;-1.40;99.90;;;;;;5032574;28;20067;-61
2022/01/21 01:51:55;;;;;;;6.45;3.08;;;-1.40;99.90;;;;;;5034579;28;20042;-62
2022/01/21 01:54:21;;;;;;;7.95;1.70;;;-1.40;99.90;;;;;;5027121;28;20025;-63
2022/01/21 01:56:50;;;;;;;5.88;1.80;;;-1.40;99.90;;;;;;5024977;28;20363;-61
2022/01/21 01:59:16;;;;;;;8.80;2.55;;;-1.30;99.90;;;;;;5030370;28;20045;-63
2022/01/21 02:01:42;;;;;;;10.65;1.90;;;-1.30;99.90;;;;;;5023802;28;20254;-61
2022/01/21 02:04:07;;;;;;;18.05;2.80;;;-1.40;99.90;;;;;;5027249;28;21537;-62
2022/01/21 02:06:33;;;;;;;11.30;1.60;;;-1.40;99.90;;;;;;5032053;28;20036;-61
2022/01/21 02:09:00;;;;;;;10.02;1.98;;;-1.40;99.90;;;;;;5030256;28;20144;-61
2022/01/21 02:11:25;;;;;;;3.38;1.50;;;-1.30;99.90;;;;;;5032055;28;20025;-61
2022/01/21 02:13:57;;;;;;;12.85;2.72;;;-1.30;99.90;;;;;;5028859;28;20320;-61
2022/01/21 02:21:38;;;;;;;6.72;1.75;;;-1.30;99.90;;;;;;5028606;28;20044;-61
2022/01/21 02:24:11;;;;;;;12.48;2.20;;;-1.30;99.90;;;;;;5029731;28;20017;-62
2022/01/21 02:26:37;;;;;;;12.15;2.20;;;-1.30;99.90;;;;;;5025640;28;20045;-61
2022/01/21 02:29:05;;;;;;;8.15;1.75;;;-1.30;99.90;;;;;;5026434;28;20025;-62
2022/01/21 02:31:31;;;;;;;9.35;2.70;;;-1.30;99.90;;;;;;5035915;28;20120;-61
2022/01/21 02:33:57;;;;;;;7.78;1.67;;;-1.30;99.90;;;;;;5033046;28;20083;-59
2022/01/21 02:36:23;;;;;;;12.90;2.25;;;-1.30;99.90;;;;;;5032960;28;20465;-59
2022/01/21 02:38:49;;;;;;;12.68;3.15;;;-1.30;99.90;;;;;;5028745;28;20036;-61
2022/01/21 02:41:15;;;;;;;10.57;3.28;;;-1.30;99.90;;;;;;5028951;28;20029;-62
2022/01/21 02:43:40;;;;;;;11.20;2.55;;;-1.20;99.90;;;;;;5031247;28;20567;-62
2022/01/21 02:46:08;;;;;;;8.25;2.30;;;-1.20;99.90;;;;;;5028840;28;20666;-61
2022/01/21 02:48:37;;;;;;;4.97;1.65;;;-1.20;99.90;;;;;;5031165;28;20631;-59
2022/01/21 02:51:05;;;;;;;12.10;1.85;;;-1.20;99.90;;;;;;5034083;28;20104;-63
2022/01/21 02:53:41;;;;;;;8.10;1.95;;;-1.20;99.90;;;;;;5027320;28;20108;-61
2022/01/21 02:56:10;;;;;;;8.20;2.28;;;-1.20;99.90;;;;;;5030045;28;20028;-62
2022/01/21 02:58:36;;;;;;;11.27;2.78;;;-1.20;99.90;;;;;;5033484;28;20495;-63
2022/01/21 03:01:01;;;;;;;8.25;1.42;;;-1.10;99.90;;;;;;5037413;28;20056;-61
2022/01/21 03:03:27;;;;;;;7.90;2.60;;;-1.10;99.90;;;;;;5032764;28;20036;-61
2022/01/21 03:05:52;;;;;;;8.25;2.60;;;-1.10;99.90;;;;;;5036002;28;20029;-61
2022/01/21 03:08:18;;;;;;;10.77;2.58;;;-1.10;99.90;;;;;;5028098;28;20021;-63
2022/01/21 03:10:44;;;;;;;8.63;2.50;;;-1.10;99.90;;;;;;5028682;28;20565;-61
2022/01/21 03:13:10;;;;;;;14.02;2.88;;;-1.10;99.90;;;;;;5033609;28;20108;-62
2022/01/21 03:15:35;;;;;;;7.53;1.77;;;-1.00;99.90;;;;;;5036846;28;20118;-61
2022/01/21 03:18:00;;;;;;;;;;;-1.00;99.90;;;;;;5037510;28;20512;-62
2022/01/21 03:20:26;;;;;;;13.32;2.58;;;-1.00;99.90;;;;;;5028076;28;19917;-62
2022/01/21 03:22:52;;;;;;;8.60;1.38;;;-1.00;99.90;;;;;;5030485;28;20033;-61
2022/01/21 03:25:17;;;;;;;14.68;3.83;;;-1.00;99.90;;;;;;5030525;28;20168;-62
2022/01/21 03:27:43;;;;;;;7.38;3.33;;;-1.00;99.90;;;;;;5033525;28;20658;-63
2022/01/21 03:30:10;;;;;;;12.63;1.60;;;-1.00;99.90;;;;;;5026668;28;20076;-61
2022/01/21 03:32:36;;;;;;;13.68;2.38;;;-1.00;99.90;;;;;;5030090;28;20036;-61
2022/01/21 03:35:02;;;;;;;;;;;-1.00;99.90;;;;;;5031021;28;20037;-62
2022/01/21 03:37:27;;;;;;;10.00;1.63;;;-1.00;99.90;;;;;;5031771;28;20349;-62
2022/01/21 03:39:53;;;;;;;8.23;1.20;;;-1.00;99.90;;;;;;5023890;28;20041;-61
2022/01/21 03:42:19;;;;;;;11.25;2.40;;;-0.90;99.90;;;;;;5026831;28;20029;-63
2022/01/21 03:44:44;;;;;;;12.57;2.67;;;-0.90;99.90;;;;;;5028203;28;20038;-62
2022/01/21 03:47:10;;;;;;;7.85;2.63;;;-0.80;99.90;;;;;;5026143;28;20029;-58
2022/01/21 03:49:41;;;;;;;11.10;2.25;;;-0.70;99.90;;;;;;5028645;28;20387;-63
2022/01/21 03:52:07;;;;;;;11.50;2.28;;;-0.60;99.90;;;;;;5034583;28;20457;-62
2022/01/21 03:54:35;;;;;;;6.82;2.30;;;-0.60;99.90;;;;;;5028645;28;20123;-63
2022/01/21 03:57:02;;;;;;;6.72;1.77;;;-0.50;99.90;;;;;;5027364;28;20041;-61
2022/01/21 03:59:27;;;;;;;9.45;1.83;;;-0.50;99.90;;;;;;5027697;28;20126;-61
2022/01/21 04:01:53;;;;;;;15.40;2.20;;;-0.50;99.90;;;;;;5031976;28;20025;-63
2022/01/21 04:04:18;;;;;;;8.45;1.85;;;-0.40;99.90;;;;;;5024905;28;20053;-62
2022/01/21 04:06:44;;;;;;;15.63;3.63;;;-0.40;99.90;;;;;;5037912;28;20029;-62
2022/01/21 04:09:09;;;;;;;9.40;1.55;;;-0.40;99.90;;;;;;5030685;28;20049;-63
2022/01/21 04:11:35;;;;;;;7.13;2.55;;;-0.30;99.90;;;;;;5031534;28;20092;-62
2022/01/21 04:14:01;;;;;;;7.40;1.90;;;-0.30;99.90;;;;;;5032908;28;20455;-62
2022/01/21 04:16:26;;;;;;;6.15;1.35;;;-0.30;99.90;;;;;;5031086;28;20040;-61
2022/01/21 04:18:52;;;;;;;6.40;1.80;;;-0.40;99.90;;;;;;5035240;28;20120;-62
2022/01/21 04:21:17;;;;;;;4.30;2.00;;;-0.40;99.90;;;;;;5032748;28;20026;-60
2022/01/21 04:23:43;;;;;;;7.20;2.03;;;-0.40;99.90;;;;;;5031246;28;20489;-62
2022/01/21 04:26:08;;;;;;;9.07;1.83;;;-0.40;99.90;;;;;;5035589;28;20527;-63
2022/01/21 04:28:34;;;;;;;10.55;1.38;;;-0.40;99.90;;;;;;5033807;28;20491;-61
2022/01/21 04:31:01;;;;;;;9.45;2.40;;;-0.40;99.90;;;;;;5024440;28;20331;-61
2022/01/21 04:33:26;;;;;;;16.67;4.07;;;-0.40;99.90;;;;;;5029555;28;20103;-62
2022/01/21 04:35:52;;;;;;;10.05;2.25;;;-0.50;99.90;;;;;;5026457;28;20037;-62
2022/01/21 04:38:21;;;;;;;9.38;1.73;;;-0.50;99.90;;;;;;5030886;28;20135;-62
2022/01/21 04:40:54;;;;;;;9.15;2.15;;;-0.50;99.90;;;;;;5050201;22;20133;-78
2022/01/21 04:48:48;;;;;;;8.90;1.70;;;-0.50;99.90;;;;;;5026292;28;20113;-78
2022/01/21 04:51:16;;;;;;;21.17;3.85;;;-0.50;99.90;;;;;;5025805;28;20112;-79
2022/01/21 04:53:44;;;;;;;6.45;1.75;;;-0.50;99.90;;;;;;5028180;28;20033;-78
2022/01/21 04:56:10;;;;;;;7.38;2.33;;;-0.40;99.90;;;;;;5027051;28;20083;-78
2022/01/21 04:58:35;;;;;;;9.52;3.25;;;-0.40;99.90;;;;;;5025805;28;20025;-78
2022/01/21 05:01:04;;;;;;;9.23;1.58;;;-0.40;99.90;;;;;;5023183;28;20029;-79
2022/01/21 05:03:30;;;;;;;11.38;1.63;;;-0.40;99.90;;;;;;5027671;28;20397;-79
2022/01/21 05:05:55;;;;;;;7.38;1.70;;;-0.40;99.90;;;;;;5024777;28;20025;-79
2022/01/21 05:08:29;;;;;;;11.20;1.52;;;-0.30;99.90;;;;;;5026011;28;20116;-78
2022/01/21 05:10:55;;;;;;;10.35;3.20;;;-0.20;99.90;;;;;;5022883;28;20024;-79
2022/01/21 05:13:24;;;;;;;15.48;1.60;;;-0.20;99.90;;;;;;5026598;28;20029;-79
2022/01/21 05:16:04;;;;;;;15.68;3.72;;;-0.10;99.90;;;;;;5025272;28;20121;-79
2022/01/21 05:18:30;;;;;;;6.90;2.45;;;-0.10;99.90;;;;;;5027053;28;20406;-79
2022/01/21 05:20:56;;;;;;;7.53;2.10;;;0.00;99.90;;;;;;5023208;28;20030;-80
2022/01/21 05:23:22;;;;;;;12.02;1.42;;;0.00;99.90;;;;;;5025175;28;20561;-80
2022/01/21 05:25:48;;;;;;;;;;;0.00;99.90;;;;;;5027096;28;20057;-80
2022/01/21 05:28:14;;;;;;;5.95;1.70;;;0.10;99.90;;;;;;5024209;28;19972;-79
2022/01/21 05:30:39;;;;;;;6.65;1.88;;;0.10;99.90;;;;;;5022094;28;20091;-79
2022/01/21 05:33:05;;;;;;;9.73;4.47;;;0.20;99.90;;;;;;5026838;28;20026;-77
2022/01/21 05:35:30;;;;;;;10.18;2.55;;;0.20;99.90;;;;;;5026600;28;20512;-81
2022/01/21 05:37:56;;;;;;;15.32;3.63;;;0.50;99.90;;;;;;5024034;28;20118;-81
2022/01/21 05:40:23;;;;;;;6.88;1.50;;;0.50;99.90;;;;;;5026710;28;20026;-82
2022/01/21 05:42:49;;;;;;;12.20;2.55;;;0.50;99.90;;;;;;5024583;28;20037;-81
2022/01/21 05:47:59;;;;;;;6.28;2.17;;;0.50;99.90;;;;;;5025101;28;20044;-78
2022/01/21 05:50:24;;;;;;;7.57;2.05;;;0.50;99.90;;;;;;5021107;28;20043;-80
2022/01/21 05:52:50;;;;;;;7.82;1.58;;;0.50;99.90;;;;;;5023050;28;20025;-81
2022/01/21 05:55:17;;;;;;;14.30;2.80;;;0.50;99.90;;;;;;5026126;28;20029;-76
2022/01/21 05:57:43;;;;;;;5.97;2.15;;;0.50;99.90;;;;;;5022917;28;20067;-74
2022/01/21 06:00:10;;;;;;;6.40;1.60;;;0.60;99.90;;;;;;5021563;28;20040;-74
2022/01/21 06:02:37;;;;;;;8.25;2.72;;;0.60;99.90;;;;;;5025971;28;20482;-74
2022/01/21 06:05:03;;;;;;;13.15;1.92;;;0.60;99.90;;;;;;5023882;28;20464;-76
2022/01/21 06:07:29;;;;;;;13.35;2.00;;;0.60;99.90;;;;;;5025234;28;20109;-76
2022/01/21 06:09:54;;;;;;;7.15;1.77;;;0.60;99.90;;;;;;5023213;28;20490;-72
2022/01/21 06:12:20;;;;;;;7.47;1.48;;;0.70;99.90;;;;;;5027374;28;20026;-73
2022/01/21 06:14:45;;;;;;;12.20;1.88;;;0.70;99.90;;;;;;5024094;28;20037;-73
2022/01/21 06:17:12;;;;;;;8.82;1.42;;;0.70;99.90;;;;;;5024590;28;20105;-74
2022/01/21 06:19:38;;;;;;;11.07;1.52;;;0.70;99.90;;;;;;5025110;28;20053;-73
2022/01/21 06:22:04;;;;;;;8.60;2.65;;;0.80;99.90;;;;;;5022285;28;20026;-74
2022/01/21 06:24:30;;;;;;;11.70;2.20;;;0.80;99.90;;;;;;5027508;28;20047;-74
2022/01/21 06:27:00;;;;;;;8.35;2.35;;;0.70;99.90;;;;;;5025629;28;20148;-74
2022/01/21 06:29:25;;;;;;;5.10;1.27;;;0.80;99.90;;;;;;5023086;28;20071;-80
2022/01/21 06:31:51;;;;;;;12.82;2.13;;;0.80;99.90;;;;;;5022729;28;20021;-77
2022/01/21 06:34:17;;;;;;;9.85;1.77;;;0.80;99.90;;;;;;5025102;28;20035;-77
2022/01/21 06:36:42;;;;;;;4.22;1.25;;;0.80;99.90;;;;;;5025673;28;20764;-77
2022/01/21 06:39:08;;;;;;;9.45;1.73;;;0.80;99.90;;;;;;5023437;28;20037;-76
2022/01/21 06:41:33;;;;;;;2.13;0.95;;;0.90;99.90;;;;;;5027384;28;20444;-76
2022/01/21 06:43:59;;;;;;;8.88;1.63;;;0.90;99.90;;;;;;5026318;28;20401;-78
2022/01/21 06:46:24;;;;;;;;;;;0.90;99.90;;;;;;5028007;28;20445;-77
2022/01/21 06:48:50;;;;;;;11.18;1.80;;;0.90;99.90;;;;;;5026702;28;20391;-77
2022/01/21 06:51:15;;;;;;;7.95;1.83;;;1.00;99.90;;;;;;5027639;28;20017;-77
2022/01/21 06:53:41;;;;;;;9.80;1.58;;;1.00;99.90;;;;;;5030544;28;20492;-77
2022/01/21 06:56:06;;;;;;;5.22;1.35;;;1.00;99.90;;;;;;5028191;28;20143;-77
2022/01/21 06:58:32;;;;;;;8.73;1.90;;;1.00;99.90;;;;;;5030660;28;20025;-77
2022/01/21 07:00:58;;;;;;;7.40;1.60;;;1.00;99.90;;;;;;5029523;28;20037;-78
2022/01/21 07:03:24;;;;;;;;;;;1.00;99.90;;;;;;5029573;28;20370;-77
2022/01/21 07:05:49;;;;;;;8.88;1.98;;;1.00;99.90;;;;;;5028416;28;20416;-77
2022/01/21 07:08:16;;;;;;;9.23;1.35;;;1.00;99.90;;;;;;5028601;28;20557;-78
2022/01/21 07:10:42;;;;;;;11.68;1.67;;;1.00;99.90;;;;;;5025592;28;20041;-78
2022/01/21 07:13:08;;;;;;;8.18;1.45;;;1.00;99.90;;;;;;5025805;28;20098;-76
2022/01/21 07:15:34;;;;;;;5.57;1.40;;;1.00;99.90;;;;;;5023995;28;20036;-78
2022/01/21 07:17:59;;;;;;;5.68;1.02;;;1.00;99.90;;;;;;5025099;28;20029;-78
2022/01/21 07:20:25;;;;;;;14.65;1.55;;;1.00;99.90;;;;;;5027643;28;20490;-81
2022/01/21 07:22:50;;;;;;;7.78;1.63;;;1.00;99.90;;;;;;5027376;28;20529;-80
2022/01/21 07:25:17;;;;;;;12.90;2.80;;;1.00;99.90;;;;;;5028588;28;20037;-78
2022/01/21 07:27:42;;;;;;;;;;;1.00;99.90;;;;;;5029999;28;20037;-78
2022/01/21 07:30:09;;;;;;;8.70;1.42;;;1.00;99.90;;;;;;5027614;28;19913;-79
2022/01/21 07:32:34;;;;;;;12.07;5.28;;;1.00;99.90;;;;;;5028003;28;20048;-78
2022/01/21 07:35:00;;;;;;;11.32;2.38;;;1.00;99.90;;;;;;5028289;28;20029;-78
2022/01/21 07:37:25;;;;;;;;;;;1.00;99.90;;;;;;5026348;28;20489;-81
2022/01/21 07:39:51;;;;;;;5.13;2.33;;;1.00;99.90;;;;;;5026558;28;20292;-78
2022/01/21 07:42:17;;;;;;;5.78;1.80;;;1.00;99.90;;;;;;5026208;28;20063;-78
2022/01/21 07:44:42;;;;;;;9.30;2.85;;;1.10;99.90;;;;;;5026916;28;20040;-80
2022/01/21 07:47:08;;;;;;;14.88;2.22;;;1.10;99.90;;;;;;5028684;28;20509;-81
2022/01/21 07:49:33;;;;;;;7.57;2.15;;;1.10;99.90;;;;;;5029738;28;20119;-78
2022/01/21 07:51:59;;;;;;;5.95;3.20;;;1.10;99.90;;;;;;5028516;28;20120;-79
2022/01/21 07:54:25;;;;;;;10.85;1.80;;;1.10;99.90;;;;;;5024610;28;20053;-80
2022/01/21 07:56:50;;;;;;;12.35;2.28;;;1.10;99.90;;;;;;5027586;28;20061;-76
2022/01/21 07:59:17;;;;;;;4.90;2.00;;;1.20;99.90;;;;;;5026022;28;20057;-74
2022/01/21 08:01:43;;;;;;;11.10;1.48;;;1.30;99.90;;;;;;5026980;28;20033;-74
2022/01/21 08:04:10;;;;;;;10.25;2.00;;;1.30;99.90;;;;;;5025046;28;20034;-76
2022/01/21 08:06:35;;;;;;;8.77;2.10;;;1.30;99.90;;;;;;5027880;28;20030;-74
2022/01/21 08:09:02;;;;;;;7.18;2.25;;;1.30;99.90;;;;;;5024553;28;20029;-74
2022/01/21 08:11:28;;;;;;;6.72;1.98;;;1.30;99.90;;;;;;5027551;28;20033;-74
2022/01/21 08:13:54;;;;;;;8.30;2.50;;;1.40;99.90;;;;;;5025902;28;20108;-75
2022/01/21 08:16:19;;;;;;;7.20;2.20;;;1.40;99.90;;;;;;5023794;28;20030;-76
2022/01/21 08:18:45;;;;;;;5.22;2.25;;;1.40;99.90;;;;;;5026210;28;20029;-77
2022/01/21 08:21:18;;;;;;;6.25;2.30;;;1.50;99.90;;;;;;5027156;28;20033;-77
2022/01/21 08:23:44;;;;;;;11.70;2.30;;;1.50;99.90;;;;;;5026208;28;20111;-77
2022/01/21 08:26:10;;;;;;;8.23;2.20;;;1.50;99.90;;;;;;5024299;28;20037;-74
2022/01/21 08:28:35;;;;;;;7.90;3.28;;;1.60;99.90;;;;;;5024504;28;20024;-75
2022/01/21 08:31:01;;;;;;;9.93;3.25;;;1.60;99.90;;;;;;5025039;28;20048;-75
2022/01/21 08:33:26;;;;;;;7.20;3.10;;;1.60;99.90;;;;;;5025830;28;20021;-75
2022/01/21 08:35:52;;;;;;;8.30;3.47;;;1.60;99.90;;;;;;5027011;28;20418;-74
2022/01/21 08:38:17;;;;;;;11.98;4.13;;;1.60;99.90;;;;;;5026479;28;20028;-74
2022/01/21 08:40:43;;;;;;;10.68;3.45;;;1.70;99.90;;;;;;5026039;28;20099;-75
2022/01/21 08:43:09;;;;;;;17.63;5.55;;;1.70;99.90;;;;;;5026905;28;20402;-74
2022/01/21 08:45:34;;;;;;;6.90;3.22;;;1.70;99.90;;;;;;5028076;28;20041;-73
2022/01/21 08:48:00;;;;;;;8.70;3.83;;;1.70;99.90;;;;;;5025320;28;20776;-73
2022/01/21 08:50:27;;;;;;;10.30;3.95;;;1.70;99.90;;;;;;5027148;28;20033;-73
2022/01/21 08:52:56;;;;;;;5.20;2.33;;;1.70;99.90;;;;;;5025526;28;20037;-73
2022/01/21 08:55:22;;;;;;;8.85;2.35;;;1.70;99.90;;;;;;5027357;28;20025;-73
2022/01/21 08:57:48;;;;;;;5.65;1.80;;;1.80;99.90;;;;;;5024476;28;20025;-72
2022/01/21 09:00:16;;;;;;;;;;;1.80;99.90;;;;;;5025507;28;20076;-72
2022/01/21 09:02:42;;;;;;;6.13;1.95;;;1.80;99.90;;;;;;5024032;28;19913;-73
2022/01/21 09:05:08;;;;;;;4.45;1.90;;;1.80;99.90;;;;;;5027179;28;20055;-77
2022/01/21 09:07:34;;;;;;;4.25;1.40;;;1.80;99.90;;;;;;5026671;28;20033;-76
2022/01/21 09:10:00;;;;;;;9.68;2.25;;;1.90;99.90;;;;;;5026558;28;20076;-75
2022/01/21 09:12:25;;;;;;;8.93;2.15;;;1.90;99.90;;;;;;5025962;28;20025;-74
2022/01/21 09:14:51;;;;;;;5.90;1.73;;;1.90;99.90;;;;;;5024967;28;20573;-74
2022/01/21 09:17:17;;;;;;;3.05;1.40;;;1.90;99.90;;;;;;5025317;28;20133;-77
2022/01/21 09:19:42;;;;;;;;;;;2.00;99.90;;;;;;5026977;28;20021;-78
2022/01/21 09:22:08;;;;;;;7.07;2.08;;;1.90;99.90;;;;;;5024256;28;19971;-77
2022/01/21 09:24:33;;;;;;;9.18;3.13;;;2.00;99.90;;;;;;5026055;28;20029;-78
2022/01/21 09:27:00;;;;;;;3.80;1.65;;;2.00;99.90;;;;;;5024564;28;20037;-75
2022/01/21 09:29:26;;;;;;;5.72;1.40;;;2.10;99.90;;;;;;5024828;28;20029;-75
2022/01/21 09:31:52;;;;;;;9.85;2.25;;;2.10;99.90;;;;;;5023954;28;20440;-76
2022/01/21 09:34:17;;;;;;;4.55;1.58;;;2.10;99.90;;;;;;5025336;28;20037;-75
2022/01/21 09:36:43;;;;;;;11.50;2.65;;;2.20;99.90;;;;;;5025237;28;20060;-78
2022/01/21 09:39:09;;;;;;;3.80;1.73;;;2.10;99.90;;;;;;5024049;28;20052;-81
2022/01/21 09:41:35;;;;;;;5.78;2.63;;;2.10;99.90;;;;;;5025725;28;20053;-78
2022/01/21 09:44:03;;;;;;;8.10;1.67;;;2.10;99.90;;;;;;5025288;28;20040;-78
2022/01/21 09:46:36;;;;;;;8.40;1.95;;;2.20;99.90;;;;;;5026241;28;20030;-76
2022/01/21 09:49:09;;;;;;;12.32;2.40;;;2.20;99.90;;;;;;5025511;28;20026;-77
2022/01/21 09:51:36;;;;;;;5.20;1.70;;;2.30;99.90;;;;;;5023117;28;20044;-78
2022/01/21 09:54:05;;;;;;;6.43;2.33;;;2.30;99.90;;;;;;5023610;28;20025;-78
2022/01/21 09:56:34;;;;;;;5.50;1.42;;;2.30;99.90;;;;;;5024878;28;20030;-79
2022/01/21 09:59:00;;;;;;;11.48;2.03;;;2.30;99.90;;;;;;5024945;28;20026;-78
2022/01/21 10:01:27;;;;;;;4.88;1.75;;;2.30;99.90;;;;;;5024043;28;20363;-79
2022/01/21 10:03:53;;;;;;;7.13;3.85;;;2.40;99.90;;;;;;5025384;28;20025;-78
2022/01/21 10:06:21;;;;;;;;;;;2.30;99.90;;;;;;5025582;28;20033;-79
2022/01/21 10:08:48;;;;;;;9.20;1.80;;;2.30;99.90;;;;;;5023308;28;19971;-83
2022/01/21 10:11:14;;;;;;;4.82;1.80;;;2.30;99.90;;;;;;5025785;28;20048;-82
2022/01/21 10:13:39;;;;;;;11.85;1.63;;;2.40;99.90;;;;;;5026128;28;20371;-81
2022/01/21 10:16:08;;;;;;;15.15;1.95;;;2.50;99.90;;;;;;5026730;28;20048;-81
2022/01/21 10:18:34;;;;;;;5.97;1.65;;;2.50;99.90;;;;;;5027060;28;20044;-81
2022/01/21 10:21:11;;;;;;;10.57;2.08;;;2.60;99.90;;;;;;5026509;28;20033;-81
2022/01/21 10:23:39;;;;;;;9.23;1.83;;;2.60;99.90;;;;;;5024610;28;20088;-81
2022/01/21 10:26:14;;;;;;;8.75;2.70;;;2.60;99.90;;;;;;5025358;28;20036;-82
2022/01/21 10:28:42;;;;;;;4.40;1.90;;;2.70;99.90;;;;;;5029405;28;20406;-79
2022/01/21 10:31:18;;;;;;;16.27;3.08;;;2.70;99.90;;;;;;5028134;28;20037;-83
2022/01/21 10:33:45;;;;;;;6.23;2.47;;;2.80;99.90;;;;;;5030600;28;20091;-84
2022/01/21 10:36:30;;;;;;;11.00;1.25;;;2.80;99.90;;;;;;5029709;28;20276;-84
2022/01/21 10:39:09;;;;;;;6.00;1.88;;;2.70;99.90;;;;;;5027807;28;20044;-79
2022/01/21 10:41:42;;;;;;;9.90;1.48;;;2.70;99.90;;;;;;4998146;28;20050;-83
2022/01/21 10:44:13;;;;;;;7.38;1.27;;;2.70;99.90;;;;;;4995800;28;20038;-80
2022/01/21 10:46:41;;;;;;;6.68;1.90;;;2.70;99.90;;;;;;4999705;28;20081;-82
2022/01/21 10:49:10;;;;;;;7.28;1.95;;;2.70;99.90;;;;;;4999910;28;20062;-80
2022/01/21 10:51:38;;;;;;;6.75;2.08;;;2.80;99.90;;;;;;4998964;28;20057;-85
2022/01/21 10:54:13;;;;;;;11.05;2.15;;;2.90;99.90;;;;;;5000173;28;20026;-84
2022/01/21 10:56:39;;;;;;;9.90;2.20;;;2.90;99.90;;;;;;4999524;28;20058;-84
2022/01/21 10:59:04;;;;;;;9.02;1.65;;;3.00;99.90;;;;;;4995845;28;20053;-85
2022/01/21 11:01:30;;;;;;;10.20;1.75;;;3.00;99.90;;;;;;4996878;28;20481;-84
2022/01/21 11:04:12;;;;;;;13.32;2.28;;;3.10;99.90;;;;;;4995737;28;20022;-81
2022/01/21 11:06:56;;;;;;;8.35;2.20;;;3.10;99.90;;;;;;4993864;28;20034;-81
2022/01/21 11:09:28;;;;;;;5.63;2.08;;;3.10;99.90;;;;;;4997206;28;20103;-81
2022/01/21 11:12:07;;;;;;;10.48;1.67;;;3.30;99.90;;;;;;4999337;28;20037;-80
2022/01/21 11:14:34;;;;;;;8.18;2.30;;;3.30;99.90;;;;;;4997867;28;20035;-80
2022/01/21 11:17:16;;;;;;;4.47;1.52;;;3.20;99.90;;;;;;4999461;28;20038;-80
2022/01/21 11:20:03;;;;;;;9.15;2.72;;;3.20;99.90;;;;;;4998603;28;20038;-82
2022/01/21 11:22:29;;;;;;;8.25;1.42;;;3.20;99.90;;;;;;4999594;28;20026;-85
2022/01/21 11:24:59;;;;;;;;;;;3.30;99.90;;;;;;5000693;28;20108;-83
2022/01/21 11:27:26;;;;;;;8.93;1.35;;;3.20;99.90;;;;;;4997845;28;19968;-82
2022/01/21 11:29:53;;;;;;;12.48;1.95;;;3.20;99.90;;;;;;4999038;28;20045;-81
2022/01/21 11:32:19;;;;;;;4.93;1.75;;;3.30;99.90;;;;;;4999644;28;20473;-81
2022/01/21 11:34:45;;;;;;;14.68;1.38;;;3.30;99.90;;;;;;5000435;28;20348;-81
2022/01/21 11:37:11;;;;;;;4.00;1.50;;;3.30;99.90;;;;;;4998920;28;20112;-80
2022/01/21 11:39:38;;;;;;;5.43;1.48;;;3.40;99.90;;;;;;4996432;28;20622;-85
2022/01/21 11:42:07;;;;;;;6.57;1.45;;;3.50;99.90;;;;;;4998660;28;20042;-85
2022/01/21 11:44:37;;;;;;;3.67;1.15;;;3.50;99.90;;;;;;4997778;28;20144;-84
2022/01/21 11:47:16;;;;;;;7.53;1.55;;;3.40;99.90;;;;;;4996990;28;20026;-83
2022/01/21 11:49:53;;;;;;;7.80;2.42;;;3.40;99.90;;;;;;4998561;28;20084;-86
2022/01/21 11:52:18;;;;;;;6.68;1.23;;;3.40;99.90;;;;;;4997884;28;20041;-87
2022/01/21 11:54:45;;;;;;;3.80;1.42;;;3.40;99.90;;;;;;4997784;28;20117;-84
2022/01/21 11:57:12;;;;;;;9.93;1.60;;;3.40;99.90;;;;;;4981969;28;20524;-84
2022/01/21 12:02:15;;;;;;;5.18;1.90;;;3.30;99.90;;;;;;4994140;28;20025;-83
2022/01/21 12:04:51;;;;;;;10.05;1.30;;;3.30;99.90;;;;;;4999388;28;20501;-81
2022/01/21 12:07:40;;;;;;;6.68;1.33;;;3.40;99.90;;;;;;4998399;28;20026;-84
2022/01/21 12:10:07;;;;;;;9.80;2.15;;;3.40;99.90;;;;;;4995669;28;20030;-80
2022/01/21 12:12:49;;;;;;;2.72;1.05;;;3.50;99.90;;;;;;4996328;28;20050;-81
2022/01/21 12:19:33;;;;;;;5.45;1.55;;;3.50;99.90;;;;;;4972551;28;20018;-81
2022/01/21 12:21:32;;;;;;;8.63;1.80;;;3.50;99.90;;;;;;4986119;28;20031;-81
2022/01/21 12:23:59;;;;;;;7.40;1.67;;;3.50;99.90;;;;;;4994952;28;20026;-80
2022/01/21 12:26:26;;;;;;;4.60;1.42;;;3.50;99.90;;;;;;4996029;28;20111;-79
2022/01/21 12:28:52;;;;;;;8.88;3.13;;;3.60;99.90;;;;;;4997957;28;20048;-83
2022/01/21 12:31:19;;;;;;;5.82;2.20;;;3.50;99.90;;;;;;4996003;28;20486;-82
2022/01/21 12:34:01;;;;;;;13.32;2.03;;;3.60;99.90;;;;;;4993987;28;20080;-81
2022/01/21 12:36:30;;;;;;;10.18;1.60;;;3.60;99.90;;;;;;4996548;28;20187;-81
2022/01/21 12:41:22;;;;;;;10.40;2.17;;;3.60;99.90;;;;;;4998194;28;20033;-81
2022/01/21 12:44:05;;;;;;;7.32;1.35;;;3.60;99.90;;;;;;4995467;28;20044;-83
2022/01/21 12:46:34;;;;;;;2.90;1.50;;;3.70;99.90;;;;;;4996800;28;20381;-79
2022/01/21 12:49:01;;;;;;;9.20;1.80;;;3.70;99.90;;;;;;4995541;28;20026;-78
2022/01/21 12:56:52;;;;;;;7.63;1.23;;;3.80;99.90;;;;;;4995825;28;20561;-82
2022/01/21 12:59:28;;;;;;;8.25;2.13;;;3.80;99.90;;;;;;4995837;28;20052;-81
2022/01/21 13:01:56;;;;;;;16.00;2.78;;;3.90;99.90;;;;;;4996232;28;20096;-85
2022/01/21 13:04:44;;;;;;;5.93;1.52;;;3.90;99.90;;;;;;4997134;28;20132;-80
2022/01/21 13:07:11;;;;;;;4.80;1.75;;;3.90;99.90;;;;;;4994783;28;20031;-82
2022/01/21 13:10:01;;;;;;;6.95;2.05;;;4.00;99.90;;;;;;4995879;28;20101;-79
2022/01/21 13:15:43;;;;;;;5.93;1.52;;;4.00;99.90;;;;;;4997164;28;20133;-78
2022/01/21 13:18:11;;;;;;;13.07;2.60;;;4.00;99.90;;;;;;4995771;28;20096;-77
2022/01/21 13:20:39;;;;;;;16.48;2.38;;;4.00;99.90;;;;;;4995891;28;20030;-77
2022/01/21 13:23:05;;;;;;;6.47;1.67;;;3.90;99.90;;;;;;4994829;28;20117;-77
2022/01/21 13:25:33;;;;;;;8.48;1.98;;;3.90;99.90;;;;;;4995372;28;20553;-78
2022/01/21 13:28:04;;;;;;;11.35;1.58;;;3.80;99.90;;;;;;4995143;28;20061;-79
2022/01/21 13:30:36;;;;;;;4.20;1.17;;;3.80;99.90;;;;;;4994706;28;20548;-80
2022/01/21 13:33:05;;;;;;;11.63;3.03;;;3.70;99.90;;;;;;4996016;28;20030;-79
2022/01/21 13:35:32;;;;;;;1.83;1.42;;;3.70;99.90;;;;;;4995894;28;20038;-79
2022/01/21 13:38:17;;;;;;;8.70;2.08;;;3.80;99.90;;;;;;4992661;28;20096;-80
2022/01/21 13:40:50;;;;;;;6.57;1.92;;;3.70;99.90;;;;;;4994690;28;20399;-78
2022/01/21 13:43:20;;;;;;;6.38;1.42;;;3.80;99.90;;;;;;4995377;28;20137;-74
2022/01/21 13:45:56;;;;;;;13.75;2.67;;;3.80;99.90;;;;;;4995230;28;20425;-76
2022/01/21 13:48:23;;;;;;;4.60;1.90;;;3.80;99.90;;;;;;4995325;28;20046;-80
2022/01/21 13:50:49;;;;;;;10.68;3.55;;;3.80;99.90;;;;;;4995223;28;20498;-83
2022/01/21 13:53:14;;;;;;;;;;;3.80;99.90;;;;;;4992734;28;20053;-84
2022/01/21 13:55:47;;;;;;;8.27;3.00;;;3.80;99.90;;;;;;4994050;28;20305;-85